Time;durP1;ratioP1;P1;durP2;ratioP2;P2;SDS_P1;SDS_P2;PMS_P1;PMS_P2;Temp;Humidity;BMP_temperature;BMP_pressure;BME280_temperature;BME280_humidity;BME280_pressure;Samples;Min_cycle;Max_cycle;Signal;HPM_P1;HPM_P2
2023/08/12 00:00:11;;;;;;;28.13;7.25;;;;;;;29.53;nan;97569.47;4989236;28;20121;-63
2023/08/12 00:02:46;;;;;;;27.48;7.00;;;;;;;29.52;nan;97569.81;4992613;28;20558;-64
2023/08/12 00:05:16;;;;;;;33.50;6.90;;;;;;;29.47;nan;97568.13;4977689;28;20057;-63
2023/08/12 00:07:45;;;;;;;28.25;6.72;;;;;;;29.42;nan;97565.63;4974378;28;20054;-64
2023/08/12 00:10:14;;;;;;;23.15;6.80;;;;;;;29.44;nan;97568.78;4973030;28;20061;-63
2023/08/12 00:12:45;;;;;;;35.67;8.88;;;;;;;29.44;nan;97564.13;4980650;28;20528;-64
2023/08/12 00:15:15;;;;;;;20.13;5.15;;;;;;;29.44;nan;97566.06;4996690;28;20046;-63
2023/08/12 00:17:44;;;;;;;15.38;5.68;;;;;;;29.43;nan;97564.50;4996119;28;20440;-64
2023/08/12 00:20:13;;;;;;;22.70;6.05;;;;;;;29.43;nan;97572.69;4980056;28;20058;-64
2023/08/12 00:22:43;;;;;;;28.88;5.95;;;;;;;29.39;nan;97563.56;4995777;28;20046;-64
2023/08/12 00:25:12;;;;;;;23.63;6.97;;;;;;;29.35;nan;97563.47;4994510;28;20050;-64
2023/08/12 00:27:41;;;;;;;18.52;5.90;;;;;;;29.35;nan;97566.19;4990508;28;20064;-64
2023/08/12 00:30:11;;;;;;;22.75;6.20;;;;;;;29.34;nan;97564.59;4980185;28;20057;-64
2023/08/12 00:32:41;;;;;;;21.02;5.75;;;;;;;29.34;nan;97564.59;4980934;28;20123;-64
2023/08/12 00:35:10;;;;;;;22.90;6.03;;;;;;;29.34;nan;97572.00;4993571;28;20046;-63
2023/08/12 00:37:41;;;;;;;22.35;6.22;;;;;;;29.35;nan;97568.91;4980238;28;20149;-64
2023/08/12 00:40:11;;;;;;;21.98;6.43;;;;;;;29.36;nan;97566.97;4979902;28;20116;-64
2023/08/12 00:42:41;;;;;;;17.10;5.38;;;;;;;29.30;nan;97563.69;4981634;28;20046;-64
2023/08/12 00:45:13;;;;;;;27.02;7.00;;;;;;;29.36;nan;97575.16;4980426;28;20050;-64
2023/08/12 00:47:43;;;;;;;25.77;6.63;;;;;;;29.34;nan;97570.03;4999238;28;20056;-64
2023/08/12 00:50:15;;;;;;;27.33;6.63;;;;;;;29.35;nan;97568.13;4974338;28;20050;-64
2023/08/12 00:52:45;;;;;;;23.77;5.38;;;;;;;29.36;nan;97573.25;4979583;28;20054;-65
2023/08/12 00:55:15;;;;;;;27.50;6.43;;;;;;;29.37;nan;97577.56;4984167;28;20417;-64
2023/08/12 00:57:44;;;;;;;21.83;6.70;;;;;;;29.38;nan;97581.09;4980118;28;20054;-64
2023/08/12 01:00:15;;;;;;;26.10;5.25;;;;;;;29.40;nan;97584.25;4986939;28;20050;-64
2023/08/12 01:02:48;;;;;;;22.10;5.80;;;;;;;29.40;nan;97584.25;4961610;28;20049;-64
2023/08/12 01:05:18;;;;;;;19.95;5.20;;;;;;;29.41;nan;97583.94;4977267;28;20534;-64
2023/08/12 01:07:48;;;;;;;23.02;6.30;;;;;;;29.43;nan;97592.53;4963202;28;20061;-64
2023/08/12 01:10:17;;;;;;;22.85;6.35;;;;;;;29.45;nan;97581.31;4965478;28;20101;-64
2023/08/12 01:13:15;;;;;;;25.27;6.28;;;;;;;29.48;nan;97583.34;4968498;28;20056;-64
2023/08/12 01:15:47;;;;;;;17.33;5.47;;;;;;;29.52;nan;97588.94;4980480;28;20108;-64
2023/08/12 01:18:17;;;;;;;17.70;5.28;;;;;;;29.53;nan;97588.56;4964413;28;20082;-64
2023/08/12 01:20:47;;;;;;;22.63;5.70;;;;;;;29.57;nan;97594.13;4984480;28;20050;-64
2023/08/12 01:23:17;;;;;;;18.08;6.10;;;;;;;29.61;nan;97589.59;4961493;28;20749;-64
2023/08/12 01:25:47;;;;;;;24.40;5.90;;;;;;;29.62;nan;97593.91;4981552;28;20157;-64
2023/08/12 01:28:16;;;;;;;26.10;6.00;;;;;;;29.63;nan;97596.28;4979044;28;20158;-64
2023/08/12 01:31:00;;;;;;;24.67;7.53;;;;;;;29.71;nan;97605.47;4967329;28;20433;-65
2023/08/12 01:33:41;;;;;;;19.88;5.57;;;;;;;29.75;nan;97600.94;4964959;28;20057;-64
2023/08/12 01:36:17;;;;;;;23.10;6.18;;;;;;;29.79;nan;97607.28;4963948;28;20164;-64
2023/08/12 01:38:50;;;;;;;24.30;6.80;;;;;;;29.80;nan;97603.41;4982496;28;20050;-64
2023/08/12 01:41:21;;;;;;;;;;;;;;;29.84;nan;97615.25;4963248;28;20201;-63
2023/08/12 01:43:57;;;;;;;25.17;5.32;;;;;;;29.89;nan;97610.38;4967003;28;20021;-64
2023/08/12 01:46:27;;;;;;;24.92;5.90;;;;;;;29.94;nan;97614.81;4964357;28;20712;-65
2023/08/12 01:48:57;;;;;;;31.77;6.25;;;;;;;29.95;nan;97619.13;4979635;28;20039;-64
2023/08/12 01:51:29;;;;;;;25.98;6.88;;;;;;;30.04;nan;97627.19;4982953;28;20046;-65
2023/08/12 01:53:58;;;;;;;25.33;6.18;;;;;;;30.08;nan;97625.34;4968040;28;20101;-64
2023/08/12 01:56:28;;;;;;;21.30;6.03;;;;;;;30.14;nan;97624.75;4960772;28;20532;-64
2023/08/12 01:58:57;;;;;;;30.08;6.85;;;;;;;30.20;nan;97625.31;4951251;28;20069;-63
2023/08/12 02:01:27;;;;;;;16.50;5.57;;;;;;;30.25;nan;97625.88;4963970;28;20050;-64
2023/08/12 02:03:56;;;;;;;25.23;5.68;;;;;;;30.32;nan;97636.97;4963517;28;20047;-64
2023/08/12 02:06:25;;;;;;;23.95;6.15;;;;;;;30.40;nan;97638.00;4964523;28;20046;-64
2023/08/12 02:08:55;;;;;;;26.30;5.78;;;;;;;30.44;nan;97636.16;4948673;28;20131;-64
2023/08/12 02:11:24;;;;;;;21.90;5.95;;;;;;;30.54;nan;97637.59;4978142;28;22317;-64
2023/08/12 02:13:53;;;;;;;23.05;5.10;;;;;;;30.68;nan;97636.06;4963525;28;20042;-64
2023/08/12 02:16:23;;;;;;;23.25;5.82;;;;;;;30.74;nan;97642.88;4962088;28;20064;-63
2023/08/12 02:18:52;;;;;;;24.83;7.45;;;;;;;30.87;nan;97645.53;4964168;28;20060;-63
2023/08/12 02:21:21;;;;;;;22.08;5.72;;;;;;;30.85;nan;97642.38;4963725;28;20073;-64
2023/08/12 02:23:51;;;;;;;19.70;6.03;;;;;;;31.20;nan;97643.31;4961720;28;20054;-63
2023/08/12 02:26:20;;;;;;;22.92;6.18;;;;;;;31.48;nan;97660.41;4968229;28;20046;-64
2023/08/12 02:28:50;;;;;;;19.92;5.25;;;;;;;31.94;nan;97652.53;4983069;28;20039;-64
2023/08/12 02:31:19;;;;;;;18.95;5.30;;;;;;;32.17;nan;97652.66;4962247;28;20064;-65
2023/08/12 02:33:49;;;;;;;17.85;5.25;;;;;;;32.41;nan;97652.38;4978401;28;20054;-64
2023/08/12 02:36:19;;;;;;;20.80;5.63;;;;;;;32.66;nan;97656.44;4954414;28;20538;-64
2023/08/12 02:38:48;;;;;;;19.85;6.05;;;;;;;32.64;nan;97661.50;4967843;28;20045;-65
2023/08/12 02:41:17;;;;;;;23.73;6.57;;;;;;;32.79;nan;97657.88;4965553;28;20534;-65
2023/08/12 02:43:47;;;;;;;21.92;6.05;;;;;;;33.02;nan;97659.84;4985744;28;20677;-64
2023/08/12 02:46:18;;;;;;;19.15;6.75;;;;;;;32.94;nan;97659.72;4966085;28;20558;-64
2023/08/12 02:48:47;;;;;;;19.92;4.88;;;;;;;32.95;nan;97668.72;4964694;28;20049;-64
2023/08/12 02:51:16;;;;;;;19.35;5.20;;;;;;;32.87;nan;97673.31;4957061;28;20399;-64
2023/08/12 02:53:46;;;;;;;17.73;6.22;;;;;;;32.66;nan;97664.69;4977355;28;20042;-64
2023/08/12 02:56:15;;;;;;;28.67;5.90;;;;;;;32.60;nan;97666.06;4974962;28;20501;-65
2023/08/12 02:58:44;;;;;;;23.73;5.18;;;;;;;32.65;nan;97667.78;4963224;28;20065;-64
2023/08/12 03:01:14;;;;;;;24.30;5.38;;;;;;;32.54;nan;97676.53;4961118;28;20053;-65
2023/08/12 03:03:43;;;;;;;16.65;5.45;;;;;;;32.55;nan;97674.59;4943487;28;20050;-64
2023/08/12 03:06:13;;;;;;;29.10;5.15;;;;;;;32.64;nan;97677.13;4959342;28;20674;-65
2023/08/12 03:08:42;;;;;;;24.30;5.63;;;;;;;32.62;nan;97679.44;4961987;28;20056;-64
2023/08/12 03:11:12;;;;;;;21.55;6.10;;;;;;;32.57;nan;97682.47;4960884;28;20057;-65
2023/08/12 03:13:42;;;;;;;21.20;5.45;;;;;;;32.59;nan;97680.94;4961059;28;20046;-64
2023/08/12 03:16:14;;;;;;;18.05;4.95;;;;;;;32.57;nan;97688.75;4945136;28;20137;-64
2023/08/12 03:18:46;;;;;;;21.15;6.20;;;;;;;32.46;nan;97679.50;4962640;28;20053;-64
2023/08/12 03:21:16;;;;;;;23.13;6.07;;;;;;;32.39;nan;97690.31;4965482;28;20051;-64
2023/08/12 03:23:47;;;;;;;26.55;5.97;;;;;;;32.30;nan;97692.47;4961745;28;20055;-68
2023/08/12 03:26:16;;;;;;;21.77;5.47;;;;;;;32.19;nan;97689.50;4961510;28;20050;-66
2023/08/12 03:28:46;;;;;;;21.60;5.60;;;;;;;32.22;nan;97688.00;4979999;28;20049;-66
2023/08/12 03:31:18;;;;;;;21.08;5.38;;;;;;;32.39;nan;97693.88;4977975;28;20046;-64
2023/08/12 03:33:48;;;;;;;24.90;5.45;;;;;;;32.27;nan;97691.25;4956883;28;20530;-63
2023/08/12 03:36:18;;;;;;;24.40;6.82;;;;;;;32.44;nan;97695.53;4961965;28;20053;-64
2023/08/12 03:38:48;;;;;;;22.05;5.53;;;;;;;32.53;nan;97693.34;4952217;28;20052;-65
2023/08/12 03:41:22;;;;;;;18.35;5.28;;;;;;;32.64;nan;97696.34;4947027;28;20468;-68
2023/08/12 03:43:53;;;;;;;27.42;6.93;;;;;;;32.69;nan;97701.53;4968070;28;20069;-66
2023/08/12 03:46:26;;;;;;;31.90;7.18;;;;;;;32.72;nan;97690.63;4961149;28;20129;-63
2023/08/12 03:48:56;;;;;;;25.67;5.88;;;;;;;32.83;nan;97699.09;4948546;28;20053;-64
2023/08/12 03:51:25;;;;;;;20.58;6.70;;;;;;;32.80;nan;97699.78;4950551;28;20054;-65
2023/08/12 03:53:55;;;;;;;24.35;5.20;;;;;;;32.86;nan;97690.91;4963265;28;20057;-65
2023/08/12 03:56:25;;;;;;;25.55;6.65;;;;;;;32.84;nan;97701.44;4965644;28;20755;-63
2023/08/12 03:58:54;;;;;;;23.30;6.30;;;;;;;32.90;nan;97699.19;4959601;28;20054;-65
2023/08/12 04:01:23;;;;;;;26.58;6.28;;;;;;;32.91;nan;97709.81;4960394;28;20545;-65
2023/08/12 04:03:53;;;;;;;24.23;7.35;;;;;;;32.88;nan;97707.78;4968030;28;20596;-66
2023/08/12 04:06:23;;;;;;;16.02;5.55;;;;;;;32.93;nan;97702.00;4967386;28;20041;-65
2023/08/12 04:08:52;;;;;;;29.10;5.75;;;;;;;32.95;nan;97699.72;4949536;28;20129;-66
2023/08/12 04:11:22;;;;;;;21.48;5.00;;;;;;;32.96;nan;97703.25;4963532;28;20097;-64
2023/08/12 04:13:51;;;;;;;23.85;7.07;;;;;;;33.06;nan;97707.34;4965913;28;20057;-65
2023/08/12 04:16:21;;;;;;;23.67;7.28;;;;;;;33.17;nan;97705.63;4968131;28;20046;-65
2023/08/12 04:18:51;;;;;;;22.55;5.95;;;;;;;33.33;nan;97704.34;4966782;28;20735;-66
2023/08/12 04:21:20;;;;;;;25.95;6.07;;;;;;;33.35;nan;97707.53;4969267;28;20069;-65
2023/08/12 04:23:49;;;;;;;28.42;7.63;;;;;;;33.31;nan;97703.94;4966167;28;20065;-66
2023/08/12 04:26:18;;;;;;;27.80;6.30;;;;;;;33.33;nan;97711.78;4950835;28;20137;-65
2023/08/12 04:28:48;;;;;;;25.08;5.90;;;;;;;33.39;nan;97713.88;4979772;28;20070;-62
2023/08/12 04:31:19;;;;;;;37.75;7.55;;;;;;;33.47;nan;97712.03;4957085;28;20050;-64
2023/08/12 04:33:52;;;;;;;22.48;5.10;;;;;;;33.58;nan;97713.00;4950098;28;20493;-65
2023/08/12 04:36:24;;;;;;;23.92;6.40;;;;;;;33.74;nan;97713.69;4964689;28;20050;-64
2023/08/12 04:38:55;;;;;;;27.70;5.25;;;;;;;34.00;nan;97710.16;4979820;28;20599;-64
2023/08/12 04:41:24;;;;;;;33.08;6.40;;;;;;;34.15;nan;97716.66;4969919;28;20038;-63
2023/08/12 04:43:55;;;;;;;32.92;7.63;;;;;;;34.23;nan;97716.41;4968758;28;20057;-64
2023/08/12 04:46:28;;;;;;;22.63;6.22;;;;;;;34.48;nan;97716.75;4964506;28;20050;-64
2023/08/12 04:48:58;;;;;;;45.10;9.23;;;;;;;34.40;nan;97722.53;4960481;28;20142;-64
2023/08/12 04:51:27;;;;;;;33.20;6.53;;;;;;;34.70;nan;97723.31;4967057;28;20125;-64
2023/08/12 04:53:58;;;;;;;42.85;7.80;;;;;;;34.97;nan;97718.53;4964002;28;20042;-65
2023/08/12 04:56:28;;;;;;;41.75;8.43;;;;;;;34.99;nan;97721.72;4967037;28;20413;-65
2023/08/12 04:58:58;;;;;;;26.33;6.03;;;;;;;34.96;nan;97719.72;4964792;28;20462;-65
2023/08/12 05:01:28;;;;;;;26.88;5.22;;;;;;;35.27;nan;97721.25;4968580;28;20462;-64
2023/08/12 05:03:57;;;;;;;22.38;5.75;;;;;;;35.29;nan;97724.41;4963343;28;20073;-64
2023/08/12 05:06:28;;;;;;;34.78;6.82;;;;;;;35.17;nan;97728.22;4967297;28;20038;-67
2023/08/12 05:08:58;;;;;;;27.23;5.72;;;;;;;34.96;nan;97715.00;4965084;28;20052;-70
2023/08/12 05:11:29;;;;;;;25.05;6.82;;;;;;;35.22;nan;97725.13;4959983;28;20163;-65
2023/08/12 05:13:58;;;;;;;20.02;5.47;;;;;;;35.46;nan;97726.53;4959897;28;20419;-65
2023/08/12 05:16:29;;;;;;;26.05;5.30;;;;;;;35.48;nan;97716.72;4960388;28;20050;-64
2023/08/12 05:18:58;;;;;;;24.13;6.82;;;;;;;35.60;nan;97718.41;4948667;28;20418;-65
2023/08/12 05:21:28;;;;;;;30.80;5.97;;;;;;;35.58;nan;97718.75;4971575;28;20049;-64
2023/08/12 05:23:58;;;;;;;25.65;6.38;;;;;;;35.50;nan;97717.13;4966555;28;20053;-64
2023/08/12 05:26:29;;;;;;;21.58;4.80;;;;;;;35.61;nan;97717.22;4980408;28;20668;-65
2023/08/12 05:28:58;;;;;;;21.67;5.22;;;;;;;35.62;nan;97720.78;4988411;28;20523;-65
2023/08/12 05:31:27;;;;;;;29.20;5.18;;;;;;;35.62;nan;97715.28;4948090;28;20050;-65
2023/08/12 05:33:57;;;;;;;21.63;5.90;;;;;;;35.63;nan;97719.63;4974314;28;20707;-65
2023/08/12 05:36:26;;;;;;;26.25;6.63;;;;;;;35.72;nan;97714.56;4967305;28;20726;-65
2023/08/12 05:38:55;;;;;;;42.92;7.35;;;;;;;35.62;nan;97721.56;4984761;28;20422;-64
2023/08/12 05:41:25;;;;;;;38.53;7.60;;;;;;;35.94;nan;97714.34;4984084;28;20043;-66
2023/08/12 05:43:55;;;;;;;33.75;7.75;;;;;;;36.11;nan;97712.91;4980326;28;20174;-65
2023/08/12 05:46:24;;;;;;;27.52;6.43;;;;;;;36.23;nan;97718.13;4961809;28;20050;-65
2023/08/12 05:48:54;;;;;;;22.90;6.00;;;;;;;36.32;nan;97715.81;4981760;28;20124;-66
2023/08/12 05:51:23;;;;;;;23.75;5.80;;;;;;;36.36;nan;97708.34;4963881;28;20046;-66
2023/08/12 05:53:55;;;;;;;27.50;6.22;;;;;;;36.41;nan;97707.19;4962237;28;20096;-65
2023/08/12 05:56:24;;;;;;;28.55;6.32;;;;;;;36.64;nan;97710.47;4980154;28;20120;-66
2023/08/12 05:58:53;;;;;;;24.63;5.95;;;;;;;36.48;nan;97702.50;4978164;28;20042;-66
2023/08/12 06:01:23;;;;;;;22.83;6.28;;;;;;;36.74;nan;97708.91;4977947;28;20058;-65
2023/08/12 06:03:53;;;;;;;21.50;5.22;;;;;;;36.72;nan;97698.28;4961627;28;20042;-65
2023/08/12 06:06:22;;;;;;;24.63;6.53;;;;;;;36.57;nan;97704.09;4979061;28;20100;-65
2023/08/12 06:08:52;;;;;;;34.30;6.35;;;;;;;36.56;nan;97703.31;4959402;28;20650;-66
2023/08/12 06:11:21;;;;;;;26.75;5.97;;;;;;;36.74;nan;97704.19;4982692;28;20978;-65
2023/08/12 06:13:50;;;;;;;27.58;7.03;;;;;;;36.59;nan;97707.28;4975280;28;20050;-66
2023/08/12 06:16:20;;;;;;;30.13;5.72;;;;;;;36.88;nan;97700.69;4966727;28;20041;-65
2023/08/12 06:18:49;;;;;;;41.47;8.15;;;;;;;36.80;nan;97702.66;4971461;28;20046;-66
2023/08/12 06:21:18;;;;;;;23.25;5.78;;;;;;;36.55;nan;97698.97;4976641;28;20053;-66
2023/08/12 06:23:48;;;;;;;16.70;5.60;;;;;;;36.69;nan;97701.03;4975117;28;20073;-65
2023/08/12 06:26:17;;;;;;;23.40;5.85;;;;;;;36.90;nan;97690.06;4957310;28;20050;-65
2023/08/12 06:28:46;;;;;;;23.45;6.03;;;;;;;36.82;nan;97691.22;4958915;28;20058;-65
2023/08/12 06:31:16;;;;;;;25.33;7.10;;;;;;;36.77;nan;97686.09;4956006;28;20048;-65
2023/08/12 06:33:45;;;;;;;24.33;6.50;;;;;;;36.75;nan;97688.44;4959248;28;20042;-66
2023/08/12 06:36:14;;;;;;;20.50;5.57;;;;;;;36.60;nan;97681.28;4958001;28;20042;-66
2023/08/12 06:38:44;;;;;;;25.38;6.57;;;;;;;36.72;nan;97684.50;4974941;28;20054;-66
2023/08/12 06:41:13;;;;;;;29.13;7.30;;;;;;;36.92;nan;97682.16;4976708;28;20614;-65
2023/08/12 06:43:42;;;;;;;22.17;7.03;;;;;;;37.03;nan;97683.00;4978479;28;20042;-65
2023/08/12 06:46:12;;;;;;;30.88;6.00;;;;;;;36.95;nan;97673.13;4951951;28;20046;-65
2023/08/12 06:48:42;;;;;;;26.90;6.03;;;;;;;37.09;nan;97664.09;4963729;28;20339;-65
2023/08/12 06:51:11;;;;;;;26.42;5.63;;;;;;;37.03;nan;97669.19;4955530;28;20048;-66
2023/08/12 06:53:40;;;;;;;17.58;5.38;;;;;;;36.80;nan;97669.53;4974440;28;20044;-66
2023/08/12 06:56:10;;;;;;;23.20;5.78;;;;;;;36.77;nan;97666.75;4975539;28;20054;-65
2023/08/12 06:58:40;;;;;;;26.70;5.53;;;;;;;36.72;nan;97659.66;4974546;28;20823;-65
2023/08/12 07:01:10;;;;;;;23.52;6.25;;;;;;;36.89;nan;97666.38;4959278;28;20049;-65
2023/08/12 07:03:42;;;;;;;22.95;5.65;;;;;;;36.97;nan;97656.13;4977496;28;20038;-66
2023/08/12 07:06:11;;;;;;;27.10;6.03;;;;;;;36.75;nan;97656.09;4978199;28;20046;-65
2023/08/12 07:08:40;;;;;;;21.85;4.97;;;;;;;36.88;nan;97653.75;4979519;28;20053;-65
2023/08/12 07:11:09;;;;;;;20.05;6.07;;;;;;;36.95;nan;97653.00;4959888;28;20489;-64
2023/08/12 07:13:39;;;;;;;23.60;6.13;;;;;;;36.95;nan;97641.94;4974272;28;20677;-66
2023/08/12 07:16:08;;;;;;;26.85;7.07;;;;;;;37.02;nan;97645.50;4606221;28;9999691;-63
2023/08/12 07:18:38;;;;;;;17.55;5.45;;;;;;;36.83;nan;97648.63;4964562;28;20061;-65
2023/08/12 07:21:08;;;;;;;18.33;5.90;;;;;;;36.85;nan;97643.50;4971420;28;20051;-65
2023/08/12 07:23:37;;;;;;;18.85;5.28;;;;;;;36.82;nan;97638.78;4974698;28;20100;-64
2023/08/12 07:26:09;;;;;;;24.13;5.72;;;;;;;36.71;nan;97637.94;4975317;28;20049;-64
2023/08/12 07:28:38;;;;;;;18.25;6.05;;;;;;;36.81;nan;97631.66;4972100;28;20042;-64
2023/08/12 07:31:08;;;;;;;26.48;5.97;;;;;;;36.78;nan;97621.44;4976926;28;20061;-64
2023/08/12 07:33:37;;;;;;;20.20;4.63;;;;;;;36.77;nan;97628.13;4958988;28;20038;-65
2023/08/12 07:36:06;;;;;;;18.90;5.57;;;;;;;36.85;nan;97621.44;4977870;28;20042;-65
2023/08/12 07:38:36;;;;;;;29.35;6.45;;;;;;;36.86;nan;97628.53;4977734;28;20049;-64
2023/08/12 07:41:05;;;;;;;20.40;4.60;;;;;;;36.91;nan;97614.34;4978239;28;20045;-65
2023/08/12 07:43:35;;;;;;;22.10;5.63;;;;;;;36.65;nan;97620.19;4974903;28;20133;-64
2023/08/12 07:46:04;;;;;;;17.80;5.07;;;;;;;36.53;nan;97615.00;4977791;28;20448;-63
2023/08/12 07:48:37;;;;;;;;;;;;;;;36.84;nan;97617.88;4966684;28;20148;-64
2023/08/12 07:51:07;;;;;;;17.55;5.80;;;;;;;36.71;nan;97607.59;4978181;28;19929;-65
2023/08/12 07:53:36;;;;;;;26.77;5.90;;;;;;;36.53;nan;97595.69;4972761;28;20042;-65
2023/08/12 07:56:05;;;;;;;29.10;5.88;;;;;;;36.54;nan;97595.31;4983485;28;20136;-65
2023/08/12 07:58:35;;;;;;;21.67;5.40;;;;;;;36.45;nan;97598.44;4971750;28;20112;-64
2023/08/12 08:01:04;;;;;;;18.05;5.43;;;;;;;36.65;nan;97596.13;4975429;28;20074;-65
2023/08/12 08:03:34;;;;;;;16.75;6.18;;;;;;;36.59;nan;97588.63;4976988;28;20046;-65
2023/08/12 08:06:03;;;;;;;25.35;6.00;;;;;;;36.67;nan;97585.50;4972193;28;20457;-65
2023/08/12 08:08:32;;;;;;;22.52;6.13;;;;;;;36.56;nan;97581.13;4957963;28;20050;-67
2023/08/12 08:11:02;;;;;;;22.88;5.60;;;;;;;36.55;nan;97579.53;4973906;28;20176;-66
2023/08/12 08:13:31;;;;;;;18.17;5.90;;;;;;;36.59;nan;97580.34;4976856;28;20120;-66
2023/08/12 08:16:00;;;;;;;20.40;7.18;;;;;;;36.48;nan;97574.78;4978143;28;20085;-65
2023/08/12 08:18:30;;;;;;;18.55;5.68;;;;;;;36.37;nan;97565.72;4976309;28;20047;-64
2023/08/12 08:20:59;;;;;;;23.00;5.70;;;;;;;36.44;nan;97568.47;4955063;28;20057;-69
2023/08/12 08:23:35;;;;;;;24.15;6.25;;;;;;;36.54;nan;97559.44;4972484;28;20457;-68
2023/08/12 08:26:05;;;;;;;16.53;5.87;;;;;;;36.52;nan;97558.22;4972409;28;20049;-69
2023/08/12 08:28:34;;;;;;;28.80;6.28;;;;;;;36.56;nan;97559.06;4973962;28;20050;-67
2023/08/12 08:31:04;;;;;;;20.75;5.88;;;;;;;36.21;nan;97555.00;4943244;28;20049;-67
2023/08/12 08:33:33;;;;;;;18.50;6.03;;;;;;;35.86;nan;97552.88;4960808;28;20052;-68
2023/08/12 08:36:03;;;;;;;18.80;5.75;;;;;;;35.87;nan;97539.88;4982414;28;20053;-67
2023/08/12 08:38:32;;;;;;;25.85;6.70;;;;;;;35.94;nan;97546.19;4982059;28;20054;-66
2023/08/12 08:41:04;;;;;;;18.65;5.60;;;;;;;35.76;nan;97539.06;4980041;28;20050;-70
2023/08/12 08:43:36;;;;;;;25.15;7.72;;;;;;;35.85;nan;97547.75;4960519;28;20125;-69
2023/08/12 08:46:07;;;;;;;23.50;6.22;;;;;;;35.95;nan;97528.50;4982718;28;20136;-70
2023/08/12 08:48:37;;;;;;;18.15;6.00;;;;;;;36.00;nan;97530.88;4979251;28;20528;-69
2023/08/12 08:51:08;;;;;;;23.77;5.60;;;;;;;35.89;nan;97527.28;4970597;28;20042;-67
2023/08/12 08:53:41;;;;;;;21.70;5.95;;;;;;;35.95;nan;97519.44;4967800;28;20066;-66
2023/08/12 08:56:12;;;;;;;25.15;6.25;;;;;;;35.77;nan;97513.84;4983620;28;20042;-67
2023/08/12 08:58:43;;;;;;;25.67;5.80;;;;;;;35.83;nan;97508.75;4983237;28;20117;-65
2023/08/12 09:01:15;;;;;;;22.00;6.20;;;;;;;35.86;nan;97511.53;4980134;28;20045;-66
2023/08/12 09:03:46;;;;;;;23.27;6.23;;;;;;;35.87;nan;97507.59;4979519;28;20171;-68
2023/08/12 09:06:15;;;;;;;26.05;6.13;;;;;;;35.86;nan;97505.22;4980521;28;20795;-66
2023/08/12 09:08:47;;;;;;;19.40;5.65;;;;;;;35.87;nan;97504.84;4982415;28;20106;-65
2023/08/12 09:11:18;;;;;;;24.95;5.80;;;;;;;35.99;nan;97495.41;4974680;28;20056;-64
2023/08/12 09:13:48;;;;;;;23.17;6.25;;;;;;;36.10;nan;97500.97;4964767;28;20296;-65
2023/08/12 09:16:17;;;;;;;21.20;5.43;;;;;;;36.05;nan;97496.63;4944753;28;20069;-65
2023/08/12 09:18:47;;;;;;;20.35;6.50;;;;;;;36.01;nan;97490.31;4977435;28;20498;-68
2023/08/12 09:21:16;;;;;;;16.02;5.07;;;;;;;35.94;nan;97487.53;4968468;28;20039;-65
2023/08/12 09:23:46;;;;;;;26.83;6.00;;;;;;;35.94;nan;97491.06;4957837;28;20081;-64
2023/08/12 09:26:20;;;;;;;23.08;5.28;;;;;;;36.02;nan;97487.19;4979986;28;20038;-63
2023/08/12 09:28:50;;;;;;;23.83;6.05;;;;;;;36.06;nan;97486.41;4975745;28;20055;-65
2023/08/12 09:31:29;;;;;;;20.95;5.93;;;;;;;36.09;nan;97491.91;4972453;28;20065;-65
2023/08/12 09:34:03;;;;;;;23.45;5.70;;;;;;;35.94;nan;97484.78;4975154;28;20157;-65
2023/08/12 09:36:34;;;;;;;27.00;6.72;;;;;;;35.94;nan;97482.81;4970177;28;20050;-64
2023/08/12 09:39:08;;;;;;;22.85;5.32;;;;;;;35.65;nan;97466.56;4975416;28;20049;-65
2023/08/12 09:41:39;;;;;;;27.98;6.07;;;;;;;35.74;nan;97476.03;4959889;28;20054;-66
2023/08/12 09:44:09;;;;;;;23.98;5.68;;;;;;;35.87;nan;97468.22;4970568;28;20054;-66
2023/08/12 09:46:38;;;;;;;27.23;6.15;;;;;;;35.86;nan;97456.41;4977172;28;20060;-64
2023/08/12 09:49:08;;;;;;;21.90;5.57;;;;;;;35.82;nan;97454.81;4958978;28;20046;-65
2023/08/12 09:51:40;;;;;;;21.77;5.50;;;;;;;35.80;nan;97452.47;4976127;28;20050;-66
2023/08/12 09:54:11;;;;;;;25.33;6.47;;;;;;;35.85;nan;97456.81;4954067;28;20522;-65
2023/08/12 09:56:52;;;;;;;19.77;5.43;;;;;;;35.92;nan;97454.06;4954624;28;20057;-65
2023/08/12 09:59:23;;;;;;;18.35;6.22;;;;;;;35.95;nan;97439.50;4968651;28;20052;-65
2023/08/12 10:01:56;;;;;;;16.90;5.32;;;;;;;35.96;nan;97438.31;4972450;28;20046;-65
2023/08/12 10:04:29;;;;;;;20.50;6.32;;;;;;;35.88;nan;97428.47;4962346;28;20069;-64
2023/08/12 10:07:00;;;;;;;30.13;7.45;;;;;;;35.87;nan;97424.13;4958540;28;20189;-64
2023/08/12 10:09:33;;;;;;;23.63;5.82;;;;;;;35.83;nan;97417.81;4966932;28;20046;-64
2023/08/12 10:12:03;;;;;;;17.00;5.32;;;;;;;35.88;nan;97414.69;4964388;28;20081;-64
2023/08/12 10:14:34;;;;;;;17.55;5.00;;;;;;;35.84;nan;97414.69;4950491;28;20050;-64
2023/08/12 10:17:05;;;;;;;24.38;6.97;;;;;;;35.85;nan;97409.97;4971701;28;20517;-65
2023/08/12 10:19:35;;;;;;;24.27;6.22;;;;;;;35.90;nan;97406.78;4967429;28;20367;-65
2023/08/12 10:22:06;;;;;;;31.05;8.40;;;;;;;35.93;nan;97411.53;4970999;28;20517;-65
2023/08/12 10:24:37;;;;;;;26.67;7.32;;;;;;;35.85;nan;97401.69;4968982;28;20430;-65
2023/08/12 10:27:07;;;;;;;25.63;6.07;;;;;;;35.87;nan;97404.81;4970869;28;20035;-65
2023/08/12 10:29:37;;;;;;;23.13;7.68;;;;;;;35.84;nan;97408.38;4972239;28;20045;-65
2023/08/12 10:32:06;;;;;;;26.88;6.60;;;;;;;35.77;nan;97402.81;4971704;28;20046;-64
2023/08/12 10:34:36;;;;;;;24.88;6.28;;;;;;;35.78;nan;97401.66;4969791;28;20050;-65
2023/08/12 10:37:06;;;;;;;21.35;7.28;;;;;;;35.74;nan;97398.91;4949590;28;20049;-67
2023/08/12 10:39:38;;;;;;;20.75;7.07;;;;;;;35.75;nan;97392.22;4950314;28;20128;-64
2023/08/12 10:42:08;;;;;;;19.33;6.30;;;;;;;35.71;nan;97380.41;4938368;28;20057;-64
2023/08/12 10:44:49;;;;;;;22.13;6.40;;;;;;;35.69;nan;97381.94;4971639;28;20080;-65
2023/08/12 10:47:19;;;;;;;27.30;6.50;;;;;;;35.66;nan;97379.97;4965408;28;20061;-66
2023/08/12 10:49:53;;;;;;;28.27;7.78;;;;;;;35.64;nan;97374.03;4952733;28;20050;-65
2023/08/12 10:52:34;;;;;;;23.88;6.80;;;;;;;35.64;nan;97383.13;4951721;28;20050;-66
2023/08/12 10:55:24;;;;;;;21.40;7.10;;;;;;;35.66;nan;97374.47;4949544;28;20076;-66
2023/08/12 10:57:58;;;;;;;20.73;7.05;;;;;;;35.63;nan;97366.97;4933789;28;20108;-66
2023/08/12 11:00:29;;;;;;;21.30;6.28;;;;;;;35.53;nan;97363.00;4966200;28;20050;-66
2023/08/12 11:02:59;;;;;;;24.15;6.40;;;;;;;35.60;nan;97355.53;4973255;28;20042;-65
2023/08/12 11:05:37;;;;;;;30.63;6.57;;;;;;;35.60;nan;97361.03;4955209;28;20632;-66
2023/08/12 11:08:07;;;;;;;18.65;6.45;;;;;;;35.56;nan;97346.47;4967836;28;20234;-66
2023/08/12 11:10:37;;;;;;;23.35;6.32;;;;;;;35.57;nan;97348.06;4968153;28;20044;-64
2023/08/12 11:13:08;;;;;;;22.85;7.40;;;;;;;35.53;nan;97354.72;4970797;28;20055;-65
2023/08/12 11:15:41;;;;;;;33.92;7.18;;;;;;;35.50;nan;97350.78;4970717;28;20124;-65
2023/08/12 11:18:14;;;;;;;22.20;7.40;;;;;;;35.46;nan;97343.66;4968390;28;20110;-65
2023/08/12 11:20:44;;;;;;;22.15;7.50;;;;;;;35.45;nan;97329.09;4972346;28;20058;-66
2023/08/12 11:23:15;;;;;;;26.70;7.65;;;;;;;35.49;nan;97334.66;4968655;28;20599;-65
2023/08/12 11:25:45;;;;;;;25.02;8.93;;;;;;;35.46;nan;97335.41;4951368;28;20135;-66
2023/08/12 11:28:14;;;;;;;19.55;7.25;;;;;;;35.37;nan;97321.22;4951503;28;20057;-65
2023/08/12 11:30:44;;;;;;;22.00;7.57;;;;;;;35.34;nan;97322.00;4973339;28;20038;-65
2023/08/12 11:33:20;;;;;;;21.80;7.53;;;;;;;35.32;nan;97314.13;4968454;28;20180;-66
2023/08/12 11:35:50;;;;;;;23.45;6.65;;;;;;;35.28;nan;97315.28;4956461;28;20061;-66
2023/08/12 11:38:21;;;;;;;21.73;6.55;;;;;;;35.25;nan;97307.81;4970811;28;20061;-66
2023/08/12 11:40:51;;;;;;;26.88;7.75;;;;;;;35.23;nan;97301.91;4969273;28;20129;-66
2023/08/12 11:43:23;;;;;;;21.83;7.50;;;;;;;35.15;nan;97307.38;4972025;28;20039;-65
2023/08/12 11:45:56;;;;;;;20.98;7.30;;;;;;;35.18;nan;97299.53;4973503;28;20895;-66
2023/08/12 11:48:28;;;;;;;26.48;8.55;;;;;;;35.15;nan;97301.06;4972927;28;20405;-66
2023/08/12 11:50:58;;;;;;;25.83;7.17;;;;;;;35.13;nan;97295.97;4947206;28;20042;-66
2023/08/12 11:53:29;;;;;;;24.70;7.82;;;;;;;35.12;nan;97297.13;4969261;28;20068;-65
2023/08/12 11:55:59;;;;;;;22.23;6.75;;;;;;;35.13;nan;97300.66;4938883;28;20553;-65